createdAt,value
2023-05-17T00:00:47.614Z,10.11
2023-05-17T00:04:50.473Z,10.11
2023-05-17T00:08:53.341Z,10.09
2023-05-17T00:12:56.098Z,10.10
2023-05-17T00:17:00.208Z,10.03
2023-05-17T00:21:03.041Z,9.99
2023-05-17T00:25:06.632Z,9.96
2023-05-17T00:29:09.458Z,9.96
2023-05-17T00:33:13.593Z,9.92
2023-05-17T00:37:17.319Z,9.89
2023-05-17T00:41:20.115Z,9.86
2023-05-17T00:45:23.092Z,9.84
2023-05-17T00:49:27.602Z,9.83
2023-05-17T00:53:30.924Z,9.87
2023-05-17T00:57:34.123Z,9.83
2023-05-17T01:01:38.990Z,9.78
2023-05-17T01:05:43.415Z,9.68
2023-05-17T01:09:46.561Z,9.60
2023-05-17T01:13:54.651Z,9.53
2023-05-17T01:18:06.158Z,9.46
2023-05-17T01:22:18.652Z,9.45
2023-05-17T01:26:34.780Z,9.41
2023-05-17T01:30:39.046Z,9.45
2023-05-17T01:34:42.711Z,9.49
2023-05-17T01:38:45.581Z,9.48
2023-05-17T01:42:55.560Z,9.52
2023-05-17T01:47:03.446Z,9.49
2023-05-17T01:51:09.993Z,9.40
2023-05-17T01:55:22.746Z,9.39
2023-05-17T01:59:28.526Z,9.43
2023-05-17T02:03:31.623Z,9.38
2023-05-17T02:07:34.408Z,9.36
2023-05-17T02:11:37.861Z,9.33
2023-05-17T02:15:42.112Z,9.37
2023-05-17T02:19:45.214Z,9.40
2023-05-17T02:23:48.062Z,9.33
2023-05-17T02:27:50.798Z,9.35
2023-05-17T02:31:54.959Z,9.34
2023-05-17T02:35:57.732Z,9.35
2023-05-17T02:40:00.875Z,9.35
2023-05-17T02:44:03.757Z,9.41
2023-05-17T02:48:08.619Z,9.43
2023-05-17T02:52:11.500Z,9.42
2023-05-17T02:56:15.214Z,9.41
2023-05-17T03:00:18.994Z,9.32
2023-05-17T03:04:23.238Z,9.20
2023-05-17T03:08:26.540Z,9.24
2023-05-17T03:12:30.301Z,9.27
2023-05-17T03:16:33.872Z,9.25
2023-05-17T03:20:38.849Z,9.25
2023-05-17T03:24:42.535Z,9.24
2023-05-17T03:28:46.310Z,9.21
2023-05-17T03:32:49.352Z,9.17
2023-05-17T03:36:53.472Z,9.09
2023-05-17T03:40:56.499Z,9.05
2023-05-17T03:45:00.047Z,9.04
2023-05-17T03:49:03.674Z,8.99
2023-05-17T03:53:10.774Z,8.91
2023-05-17T03:57:14.728Z,8.83
2023-05-17T04:01:20.233Z,8.80
2023-05-17T04:05:24.338Z,8.80
2023-05-17T04:09:28.905Z,8.79
2023-05-17T04:13:31.702Z,8.70
2023-05-17T04:17:34.577Z,8.65
2023-05-17T04:21:37.442Z,8.64
2023-05-17T04:25:42.274Z,8.65
2023-05-17T04:29:45.021Z,8.69
2023-05-17T04:33:48.075Z,8.74
2023-05-17T04:37:51.687Z,8.84
2023-05-17T04:41:58.791Z,8.86
2023-05-17T04:46:02.726Z,8.90
2023-05-17T04:50:06.394Z,8.87
2023-05-17T04:54:17.085Z,8.89
2023-05-17T04:58:21.504Z,8.91
2023-05-17T05:02:29.351Z,8.90
2023-05-17T05:06:32.302Z,8.95
2023-05-17T05:10:35.190Z,8.99
2023-05-17T05:14:39.804Z,9.04
2023-05-17T05:18:43.418Z,9.06
2023-05-17T05:22:46.370Z,9.01
2023-05-17T05:26:50.080Z,9.09
2023-05-17T05:31:00.436Z,9.10
2023-05-17T05:35:11.375Z,9.14
2023-05-17T05:39:14.497Z,9.15
2023-05-17T05:43:17.507Z,9.19
2023-05-17T05:47:21.718Z,9.31
2023-05-17T05:51:31.697Z,9.37
2023-05-17T05:55:34.730Z,9.41
2023-05-17T05:59:37.568Z,9.60
2023-05-17T06:03:41.824Z,9.53
2023-05-17T06:07:44.554Z,9.79
2023-05-17T06:11:47.351Z,9.99
2023-05-17T06:15:50.102Z,10.28
2023-05-17T06:19:55.063Z,10.55
2023-05-17T06:23:58.671Z,11.10
2023-05-17T06:28:03.607Z,11.33
2023-05-17T06:32:07.348Z,11.43
2023-05-17T06:36:12.769Z,11.81
2023-05-17T06:40:17.111Z,12.12
2023-05-17T06:44:20.213Z,12.12
2023-05-17T06:48:23.158Z,12.50
2023-05-17T06:52:27.502Z,12.51
2023-05-17T06:56:30.375Z,12.26
2023-05-17T07:00:33.382Z,12.12
2023-05-17T07:04:36.636Z,12.23
2023-05-17T07:08:41.223Z,12.58
2023-05-17T07:12:44.096Z,12.51
2023-05-17T07:16:48.102Z,12.54
2023-05-17T07:20:50.898Z,12.34
2023-05-17T07:24:57.823Z,12.53
2023-05-17T07:29:00.859Z,12.77
2023-05-17T07:33:03.729Z,12.90
2023-05-17T07:37:06.538Z,12.63
2023-05-17T07:41:11.077Z,12.48
2023-05-17T07:45:13.847Z,12.46
2023-05-17T07:49:16.780Z,12.26
2023-05-17T07:53:19.669Z,12.20
2023-05-17T07:57:23.752Z,12.25
2023-05-17T08:01:26.842Z,12.48
2023-05-17T08:05:29.868Z,12.66
2023-05-17T08:09:32.860Z,12.70
2023-05-17T08:13:36.967Z,12.90
2023-05-17T08:17:40.251Z,13.93
2023-05-17T08:21:43.806Z,14.55
2023-05-17T08:25:46.643Z,14.82
2023-05-17T08:29:51.837Z,14.69
2023-05-17T08:33:54.679Z,14.56
2023-05-17T08:37:57.659Z,14.30
2023-05-17T08:42:02.531Z,14.37
2023-05-17T08:46:07.010Z,14.68
2023-05-17T08:50:11.169Z,14.55
2023-05-17T08:54:14.301Z,15.19
2023-05-17T08:58:23.214Z,15.12
2023-05-17T09:02:27.927Z,14.81
2023-05-17T09:06:34.174Z,14.58
2023-05-17T09:10:37.024Z,15.24
2023-05-17T09:14:39.852Z,15.60
2023-05-17T09:18:44.153Z,15.61
2023-05-17T09:22:50.000Z,15.42
2023-05-17T09:26:52.727Z,15.89
2023-05-17T09:30:55.504Z,16.52
2023-05-17T09:35:02.764Z,16.67
2023-05-17T09:39:07.589Z,17.12
2023-05-17T09:43:11.012Z,16.96
2023-05-17T09:47:23.597Z,17.25
2023-05-17T09:51:34.648Z,16.97
2023-05-17T09:55:39.260Z,16.91
2023-05-17T09:59:42.727Z,16.79
2023-05-17T10:03:45.884Z,16.09
2023-05-17T10:07:51.648Z,16.39
2023-05-17T10:11:59.942Z,16.64
2023-05-17T10:16:03.620Z,16.85
2023-05-17T10:20:08.747Z,17.68
2023-05-17T10:24:13.602Z,18.14
2023-05-17T10:28:18.916Z,18.23
2023-05-17T10:32:26.751Z,17.80
2023-05-17T10:36:30.105Z,17.64
2023-05-17T10:40:36.852Z,17.14
2023-05-17T10:44:40.534Z,17.19
2023-05-17T10:48:45.619Z,17.60
2023-05-17T10:52:49.802Z,18.15
2023-05-17T10:56:55.797Z,18.07
2023-05-17T11:00:58.637Z,17.93
2023-05-17T11:05:02.498Z,17.71
2023-05-17T11:09:09.675Z,17.84
2023-05-17T11:13:27.282Z,17.50
2023-05-17T11:17:36.690Z,17.51
2023-05-17T11:21:47.369Z,17.70
2023-05-17T11:25:52.159Z,17.70
2023-05-17T11:30:00.273Z,17.64
2023-05-17T11:34:04.240Z,17.31
2023-05-17T11:38:18.552Z,17.34
2023-05-17T11:42:25.532Z,17.81
2023-05-17T11:46:30.606Z,18.10
2023-05-17T11:50:36.926Z,17.42
2023-05-17T11:54:42.937Z,16.88
2023-05-17T11:58:47.257Z,16.67
2023-05-17T12:02:51.374Z,16.73
2023-05-17T12:06:55.670Z,16.61
2023-05-17T12:10:59.257Z,16.97
2023-05-17T12:15:02.024Z,16.99
2023-05-17T12:19:18.422Z,17.62
2023-05-17T12:23:27.385Z,17.86
2023-05-17T12:27:31.388Z,18.23
2023-05-17T12:31:37.736Z,18.41
2023-05-17T12:35:42.051Z,18.07
2023-05-17T12:39:45.251Z,17.90
2023-05-17T12:43:47.990Z,17.93
2023-05-17T12:47:51.283Z,18.01
2023-05-17T12:51:55.576Z,18.01
2023-05-17T12:55:59.161Z,17.93
2023-05-17T13:00:08.176Z,17.78
2023-05-17T13:04:11.392Z,17.78
2023-05-17T13:08:21.923Z,18.03
2023-05-17T13:12:25.558Z,18.14
2023-05-17T13:16:31.344Z,18.27
2023-05-17T13:20:34.077Z,18.20
2023-05-17T13:24:40.640Z,18.50
2023-05-17T13:28:43.473Z,19.01
2023-05-17T13:32:47.534Z,19.17
2023-05-17T13:36:50.699Z,18.90
2023-05-17T13:40:55.124Z,18.94
2023-05-17T13:44:58.058Z,19.08
2023-05-17T13:49:02.758Z,19.18
2023-05-17T13:53:05.630Z,19.25
2023-05-17T13:57:12.722Z,19.22
2023-05-17T14:01:15.687Z,19.26
2023-05-17T14:05:18.479Z,18.98
2023-05-17T14:09:21.591Z,18.69
2023-05-17T14:13:27.377Z,18.49
2023-05-17T14:17:30.863Z,18.12
2023-05-17T14:21:33.764Z,17.95
2023-05-17T14:25:36.776Z,17.44
2023-05-17T14:29:41.739Z,17.09
2023-05-17T14:33:45.670Z,17.06
2023-05-17T14:37:49.159Z,17.03
2023-05-17T14:41:52.170Z,16.87
2023-05-17T14:45:56.499Z,16.98
2023-05-17T14:49:59.845Z,17.09
2023-05-17T14:54:08.566Z,17.39
2023-05-17T14:58:13.494Z,17.39
2023-05-17T15:02:19.800Z,17.38
2023-05-17T15:06:25.497Z,17.40
2023-05-17T15:10:28.778Z,17.13
2023-05-17T15:14:33.900Z,17.60
2023-05-17T15:18:38.285Z,17.80
2023-05-17T15:22:41.386Z,17.67
2023-05-17T15:26:44.481Z,17.47
2023-05-17T15:30:47.774Z,17.51
2023-05-17T15:34:52.610Z,17.39
2023-05-17T15:38:55.641Z,17.22
2023-05-17T15:42:59.472Z,16.96
2023-05-17T15:47:03.447Z,16.67
2023-05-17T15:51:09.041Z,16.19
2023-05-17T15:55:13.207Z,16.07
2023-05-17T15:59:28.711Z,16.00
2023-05-17T16:03:42.417Z,16.02
2023-05-17T16:07:51.988Z,15.92
2023-05-17T16:11:54.896Z,16.30
2023-05-17T16:16:07.317Z,16.61
2023-05-17T16:20:11.470Z,16.89
2023-05-17T16:24:15.687Z,16.92
2023-05-17T16:28:21.621Z,17.09
2023-05-17T16:32:30.420Z,17.16
2023-05-17T16:36:40.844Z,16.68
2023-05-17T16:40:44.948Z,16.32
2023-05-17T16:44:48.055Z,15.90
2023-05-17T16:48:52.634Z,15.79
2023-05-17T16:52:55.568Z,15.76
2023-05-17T16:56:59.948Z,15.63
2023-05-17T17:01:03.202Z,15.43
2023-05-17T17:05:07.087Z,15.23
2023-05-17T17:09:11.664Z,15.10
2023-05-17T17:13:15.885Z,14.95
2023-05-17T17:17:19.209Z,14.99
2023-05-17T17:21:23.052Z,14.81
2023-05-17T17:25:26.663Z,14.86
2023-05-17T17:29:32.498Z,14.85
2023-05-17T17:33:36.558Z,14.82
2023-05-17T17:37:39.603Z,14.72
2023-05-17T17:41:42.404Z,14.69
2023-05-17T17:45:47.282Z,14.65
2023-05-17T17:49:50.450Z,14.67
2023-05-17T17:53:53.845Z,14.74
2023-05-17T17:57:58.014Z,14.79
2023-05-17T18:02:04.905Z,14.74
2023-05-17T18:06:09.160Z,14.62
2023-05-17T18:10:25.168Z,14.33
2023-05-17T18:14:44.380Z,14.19
2023-05-17T18:18:55.991Z,14.13
2023-05-17T18:22:59.530Z,14.01
2023-05-17T18:27:04.470Z,13.98
2023-05-17T18:31:07.798Z,13.94
2023-05-17T18:35:12.430Z,13.91
2023-05-17T18:39:16.761Z,13.80
2023-05-17T18:43:19.801Z,13.77
2023-05-17T18:47:23.433Z,13.74
2023-05-17T18:51:28.899Z,13.71
2023-05-17T18:55:33.110Z,13.64
2023-05-17T18:59:36.957Z,13.57
2023-05-17T19:03:41.140Z,13.54
2023-05-17T19:07:56.329Z,13.38
2023-05-17T19:12:06.934Z,13.31
2023-05-17T19:16:11.986Z,13.17
2023-05-17T19:20:15.849Z,12.89
2023-05-17T19:24:21.485Z,12.73
2023-05-17T19:28:25.065Z,12.55
2023-05-17T19:32:32.843Z,12.35
2023-05-17T19:36:36.010Z,12.26
2023-05-17T19:40:41.284Z,12.18
2023-05-17T19:44:44.384Z,12.13
2023-05-17T19:48:47.805Z,12.07
2023-05-17T19:52:56.428Z,12.00
2023-05-17T19:57:02.150Z,11.93
2023-05-17T20:01:05.249Z,11.81
2023-05-17T20:05:08.868Z,11.74
2023-05-17T20:09:40.143Z,11.68
2023-05-17T20:13:44.469Z,11.57
2023-05-17T20:17:50.280Z,11.54
2023-05-17T20:21:55.817Z,11.43
2023-05-17T20:25:59.000Z,11.36
2023-05-17T20:30:05.475Z,11.26
2023-05-17T20:34:08.906Z,11.13
2023-05-17T20:38:12.144Z,11.06
2023-05-17T20:42:18.023Z,10.98
2023-05-17T20:46:23.742Z,10.94
2023-05-17T20:50:28.843Z,10.81
2023-05-17T20:54:32.424Z,10.74
2023-05-17T20:58:35.802Z,10.69
2023-05-17T21:02:40.713Z,10.66
2023-05-17T21:06:44.344Z,10.62
2023-05-17T21:11:00.830Z,10.59
2023-05-17T21:15:15.252Z,10.45
2023-05-17T21:19:21.337Z,10.42
2023-05-17T21:23:24.764Z,10.38
2023-05-17T21:27:28.838Z,10.34
2023-05-17T21:31:32.593Z,10.27
2023-05-17T21:35:40.159Z,10.16
2023-05-17T21:39:43.810Z,10.11
2023-05-17T21:43:48.569Z,10.05
2023-05-17T21:47:51.674Z,9.99
2023-05-17T21:51:56.138Z,9.94
2023-05-17T21:56:02.913Z,9.85
2023-05-17T22:00:12.612Z,9.79
2023-05-17T22:04:21.358Z,9.75
2023-05-17T22:08:27.329Z,9.68
2023-05-17T22:12:31.485Z,9.60
2023-05-17T22:16:35.136Z,9.54
2023-05-17T22:20:43.884Z,9.48
2023-05-17T22:24:50.312Z,9.42
2023-05-17T22:29:01.229Z,9.38
2023-05-17T22:33:05.213Z,9.35
2023-05-17T22:37:10.368Z,9.32
2023-05-17T22:41:14.648Z,9.28
2023-05-17T22:45:19.016Z,9.21
2023-05-17T22:49:22.007Z,9.15
2023-05-17T22:53:25.364Z,9.10
2023-05-17T22:57:29.788Z,9.06
2023-05-17T23:01:32.636Z,9.01
2023-05-17T23:05:36.887Z,8.95
2023-05-17T23:09:40.730Z,8.91
2023-05-17T23:13:45.409Z,8.89
2023-05-17T23:17:49.068Z,8.83
2023-05-17T23:21:56.087Z,8.78
2023-05-17T23:25:59.288Z,8.72
2023-05-17T23:30:04.720Z,8.70
2023-05-17T23:34:07.686Z,8.70
2023-05-17T23:38:10.596Z,8.67
2023-05-17T23:42:13.532Z,8.66
2023-05-17T23:46:19.987Z,8.63
2023-05-17T23:50:22.941Z,8.55
2023-05-17T23:54:25.810Z,8.48
2023-05-17T23:58:28.580Z,8.40
